sensor_id;sensor_type;location;lat;lon;timestamp;P1;durP1;ratioP1;P2;durP2;ratioP2
5333;SDS011;2689;50.954;7.116;2022-08-25T00:01:55;3.20;;;2.20;;
5333;SDS011;2689;50.954;7.116;2022-08-25T00:04:23;3.30;;;2.37;;
5333;SDS011;2689;50.954;7.116;2022-08-25T00:06:50;4.73;;;2.23;;
5333;SDS011;2689;50.954;7.116;2022-08-25T00:09:20;5.53;;;2.70;;
5333;SDS011;2689;50.954;7.116;2022-08-25T00:11:50;3.20;;;2.30;;
5333;SDS011;2689;50.954;7.116;2022-08-25T00:14:18;4.80;;;1.80;;
5333;SDS011;2689;50.954;7.116;2022-08-25T00:16:47;5.50;;;1.90;;
5333;SDS011;2689;50.954;7.116;2022-08-25T00:19:15;3.27;;;2.10;;
5333;SDS011;2689;50.954;7.116;2022-08-25T00:21:44;5.43;;;2.30;;
5333;SDS011;2689;50.954;7.116;2022-08-25T00:24:12;7.33;;;2.40;;
5333;SDS011;2689;50.954;7.116;2022-08-25T00:26:45;6.73;;;2.53;;
5333;SDS011;2689;50.954;7.116;2022-08-25T00:29:14;3.70;;;2.50;;
5333;SDS011;2689;50.954;7.116;2022-08-25T00:31:41;8.70;;;2.40;;
5333;SDS011;2689;50.954;7.116;2022-08-25T00:34:12;3.67;;;2.37;;
5333;SDS011;2689;50.954;7.116;2022-08-25T00:36:40;2.43;;;2.23;;
5333;SDS011;2689;50.954;7.116;2022-08-25T00:39:07;3.07;;;2.40;;
5333;SDS011;2689;50.954;7.116;2022-08-25T00:41:36;4.33;;;2.10;;
5333;SDS011;2689;50.954;7.116;2022-08-25T00:44:05;6.67;;;2.50;;
5333;SDS011;2689;50.954;7.116;2022-08-25T00:46:34;6.47;;;2.53;;
5333;SDS011;2689;50.954;7.116;2022-08-25T00:49:03;3.43;;;2.20;;
5333;SDS011;2689;50.954;7.116;2022-08-25T00:51:36;3.00;;;2.10;;
5333;SDS011;2689;50.954;7.116;2022-08-25T00:54:07;3.50;;;2.17;;
5333;SDS011;2689;50.954;7.116;2022-08-25T00:56:40;3.37;;;2.30;;
5333;SDS011;2689;50.954;7.116;2022-08-25T00:59:08;3.47;;;2.30;;
5333;SDS011;2689;50.954;7.116;2022-08-25T01:01:35;3.00;;;1.90;;
5333;SDS011;2689;50.954;7.116;2022-08-25T01:04:02;4.70;;;2.13;;
5333;SDS011;2689;50.954;7.116;2022-08-25T01:06:29;5.47;;;2.70;;
5333;SDS011;2689;50.954;7.116;2022-08-25T01:09:02;3.33;;;2.60;;
5333;SDS011;2689;50.954;7.116;2022-08-25T01:11:29;2.60;;;2.20;;
5333;SDS011;2689;50.954;7.116;2022-08-25T01:13:55;8.80;;;2.40;;
5333;SDS011;2689;50.954;7.116;2022-08-25T01:16:27;9.43;;;2.43;;
5333;SDS011;2689;50.954;7.116;2022-08-25T01:18:55;6.17;;;2.90;;
5333;SDS011;2689;50.954;7.116;2022-08-25T01:21:26;4.50;;;2.43;;
5333;SDS011;2689;50.954;7.116;2022-08-25T01:23:54;3.33;;;2.40;;
5333;SDS011;2689;50.954;7.116;2022-08-25T01:26:24;4.57;;;2.40;;
5333;SDS011;2689;50.954;7.116;2022-08-25T01:28:53;7.40;;;2.20;;
5333;SDS011;2689;50.954;7.116;2022-08-25T01:31:34;3.27;;;2.63;;
5333;SDS011;2689;50.954;7.116;2022-08-25T01:34:02;8.13;;;2.70;;
5333;SDS011;2689;50.954;7.116;2022-08-25T01:36:32;7.33;;;3.03;;
5333;SDS011;2689;50.954;7.116;2022-08-25T01:38:59;4.70;;;2.60;;
5333;SDS011;2689;50.954;7.116;2022-08-25T01:41:30;4.33;;;2.80;;
5333;SDS011;2689;50.954;7.116;2022-08-25T01:44:05;2.80;;;2.30;;
5333;SDS011;2689;50.954;7.116;2022-08-25T01:46:32;4.60;;;2.63;;
5333;SDS011;2689;50.954;7.116;2022-08-25T01:48:59;4.27;;;2.57;;
5333;SDS011;2689;50.954;7.116;2022-08-25T01:51:27;3.77;;;2.67;;
5333;SDS011;2689;50.954;7.116;2022-08-25T01:54:00;3.30;;;2.70;;
5333;SDS011;2689;50.954;7.116;2022-08-25T01:56:26;4.20;;;2.50;;
5333;SDS011;2689;50.954;7.116;2022-08-25T01:58:53;3.17;;;2.47;;
5333;SDS011;2689;50.954;7.116;2022-08-25T02:01:21;5.07;;;2.53;;
5333;SDS011;2689;50.954;7.116;2022-08-25T02:03:51;5.03;;;2.70;;
5333;SDS011;2689;50.954;7.116;2022-08-25T02:06:20;3.97;;;2.80;;
5333;SDS011;2689;50.954;7.116;2022-08-25T02:08:49;4.03;;;3.00;;
5333;SDS011;2689;50.954;7.116;2022-08-25T02:11:18;3.27;;;2.40;;
5333;SDS011;2689;50.954;7.116;2022-08-25T02:13:45;3.27;;;2.60;;
5333;SDS011;2689;50.954;7.116;2022-08-25T02:16:14;4.50;;;2.57;;
5333;SDS011;2689;50.954;7.116;2022-08-25T02:18:44;4.63;;;2.63;;
5333;SDS011;2689;50.954;7.116;2022-08-25T02:21:11;3.67;;;2.77;;
5333;SDS011;2689;50.954;7.116;2022-08-25T02:23:38;2.77;;;2.37;;
5333;SDS011;2689;50.954;7.116;2022-08-25T02:26:05;4.03;;;2.60;;
5333;SDS011;2689;50.954;7.116;2022-08-25T02:28:34;4.23;;;2.73;;
5333;SDS011;2689;50.954;7.116;2022-08-25T02:31:02;3.80;;;2.60;;
5333;SDS011;2689;50.954;7.116;2022-08-25T02:33:29;4.10;;;2.63;;
5333;SDS011;2689;50.954;7.116;2022-08-25T02:35:56;4.33;;;3.10;;
5333;SDS011;2689;50.954;7.116;2022-08-25T02:38:24;6.13;;;2.90;;
5333;SDS011;2689;50.954;7.116;2022-08-25T02:40:51;4.77;;;2.50;;
5333;SDS011;2689;50.954;7.116;2022-08-25T02:43:18;7.20;;;2.50;;
5333;SDS011;2689;50.954;7.116;2022-08-25T02:45:46;4.17;;;2.80;;
5333;SDS011;2689;50.954;7.116;2022-08-25T02:48:13;4.30;;;2.40;;
5333;SDS011;2689;50.954;7.116;2022-08-25T02:50:40;4.07;;;2.60;;
5333;SDS011;2689;50.954;7.116;2022-08-25T02:53:11;5.63;;;2.90;;
5333;SDS011;2689;50.954;7.116;2022-08-25T02:55:38;5.13;;;2.77;;
5333;SDS011;2689;50.954;7.116;2022-08-25T02:58:04;2.70;;;2.40;;
5333;SDS011;2689;50.954;7.116;2022-08-25T03:00:33;4.10;;;2.80;;
5333;SDS011;2689;50.954;7.116;2022-08-25T03:03:01;3.90;;;2.90;;
5333;SDS011;2689;50.954;7.116;2022-08-25T03:05:28;3.13;;;2.60;;
5333;SDS011;2689;50.954;7.116;2022-08-25T03:07:54;8.43;;;2.73;;
5333;SDS011;2689;50.954;7.116;2022-08-25T03:10:21;4.73;;;2.70;;
5333;SDS011;2689;50.954;7.116;2022-08-25T03:12:48;4.57;;;3.30;;
5333;SDS011;2689;50.954;7.116;2022-08-25T03:15:15;7.03;;;2.90;;
5333;SDS011;2689;50.954;7.116;2022-08-25T03:17:43;4.30;;;3.10;;
5333;SDS011;2689;50.954;7.116;2022-08-25T03:20:12;4.30;;;3.03;;
5333;SDS011;2689;50.954;7.116;2022-08-25T03:22:39;4.27;;;3.00;;
5333;SDS011;2689;50.954;7.116;2022-08-25T03:25:06;3.33;;;2.70;;
5333;SDS011;2689;50.954;7.116;2022-08-25T03:27:52;5.83;;;3.00;;
5333;SDS011;2689;50.954;7.116;2022-08-25T03:30:18;4.23;;;2.80;;
5333;SDS011;2689;50.954;7.116;2022-08-25T03:32:45;7.77;;;2.70;;
5333;SDS011;2689;50.954;7.116;2022-08-25T03:35:13;4.33;;;2.87;;
5333;SDS011;2689;50.954;7.116;2022-08-25T03:37:40;4.70;;;2.80;;
5333;SDS011;2689;50.954;7.116;2022-08-25T03:40:08;5.43;;;3.10;;
5333;SDS011;2689;50.954;7.116;2022-08-25T03:42:39;4.40;;;2.80;;
5333;SDS011;2689;50.954;7.116;2022-08-25T03:45:06;6.87;;;2.83;;
5333;SDS011;2689;50.954;7.116;2022-08-25T03:47:35;4.97;;;3.33;;
5333;SDS011;2689;50.954;7.116;2022-08-25T03:50:02;4.10;;;2.53;;
5333;SDS011;2689;50.954;7.116;2022-08-25T03:52:31;6.67;;;3.20;;
5333;SDS011;2689;50.954;7.116;2022-08-25T03:54:58;6.30;;;3.83;;
5333;SDS011;2689;50.954;7.116;2022-08-25T03:57:24;4.20;;;3.43;;
5333;SDS011;2689;50.954;7.116;2022-08-25T03:59:51;4.70;;;3.00;;
5333;SDS011;2689;50.954;7.116;2022-08-25T04:02:18;4.83;;;3.37;;
5333;SDS011;2689;50.954;7.116;2022-08-25T04:04:45;4.40;;;3.10;;
5333;SDS011;2689;50.954;7.116;2022-08-25T04:07:12;3.63;;;3.10;;
5333;SDS011;2689;50.954;7.116;2022-08-25T04:09:40;6.60;;;3.47;;
5333;SDS011;2689;50.954;7.116;2022-08-25T04:12:07;7.20;;;3.57;;
5333;SDS011;2689;50.954;7.116;2022-08-25T04:14:34;5.93;;;3.40;;
5333;SDS011;2689;50.954;7.116;2022-08-25T04:17:01;6.27;;;3.43;;
5333;SDS011;2689;50.954;7.116;2022-08-25T04:19:28;7.27;;;3.80;;
5333;SDS011;2689;50.954;7.116;2022-08-25T04:21:55;11.30;;;3.50;;
5333;SDS011;2689;50.954;7.116;2022-08-25T04:24:22;5.67;;;3.30;;
5333;SDS011;2689;50.954;7.116;2022-08-25T04:26:50;6.03;;;3.40;;
5333;SDS011;2689;50.954;7.116;2022-08-25T04:29:19;5.60;;;3.73;;
5333;SDS011;2689;50.954;7.116;2022-08-25T04:31:47;5.57;;;3.20;;
5333;SDS011;2689;50.954;7.116;2022-08-25T04:34:14;7.80;;;3.37;;
5333;SDS011;2689;50.954;7.116;2022-08-25T04:36:41;8.70;;;3.27;;
5333;SDS011;2689;50.954;7.116;2022-08-25T04:39:08;4.20;;;3.30;;
5333;SDS011;2689;50.954;7.116;2022-08-25T04:41:35;4.87;;;3.70;;
5333;SDS011;2689;50.954;7.116;2022-08-25T04:44:03;6.83;;;3.70;;
5333;SDS011;2689;50.954;7.116;2022-08-25T04:46:31;6.03;;;3.50;;
5333;SDS011;2689;50.954;7.116;2022-08-25T04:48:59;3.70;;;3.30;;
5333;SDS011;2689;50.954;7.116;2022-08-25T04:51:28;6.70;;;3.27;;
5333;SDS011;2689;50.954;7.116;2022-08-25T04:53:57;4.43;;;3.57;;
5333;SDS011;2689;50.954;7.116;2022-08-25T04:56:26;7.37;;;4.10;;
5333;SDS011;2689;50.954;7.116;2022-08-25T04:58:54;7.13;;;3.90;;
5333;SDS011;2689;50.954;7.116;2022-08-25T05:01:23;5.00;;;3.90;;
5333;SDS011;2689;50.954;7.116;2022-08-25T05:03:51;11.30;;;3.83;;
5333;SDS011;2689;50.954;7.116;2022-08-25T05:06:19;7.20;;;4.00;;
5333;SDS011;2689;50.954;7.116;2022-08-25T05:08:46;7.10;;;4.70;;
5333;SDS011;2689;50.954;7.116;2022-08-25T05:11:13;6.27;;;4.20;;
5333;SDS011;2689;50.954;7.116;2022-08-25T05:13:41;7.67;;;4.13;;
5333;SDS011;2689;50.954;7.116;2022-08-25T05:16:08;8.13;;;4.10;;
5333;SDS011;2689;50.954;7.116;2022-08-25T05:18:37;7.53;;;4.47;;
5333;SDS011;2689;50.954;7.116;2022-08-25T05:21:04;6.27;;;4.03;;
5333;SDS011;2689;50.954;7.116;2022-08-25T05:23:33;4.87;;;4.00;;
5333;SDS011;2689;50.954;7.116;2022-08-25T05:26:01;5.87;;;4.27;;
5333;SDS011;2689;50.954;7.116;2022-08-25T05:28:32;4.90;;;4.03;;
5333;SDS011;2689;50.954;7.116;2022-08-25T05:31:00;6.77;;;3.60;;
5333;SDS011;2689;50.954;7.116;2022-08-25T05:33:28;6.23;;;3.83;;
5333;SDS011;2689;50.954;7.116;2022-08-25T05:35:56;4.13;;;3.00;;
5333;SDS011;2689;50.954;7.116;2022-08-25T05:38:23;5.37;;;3.77;;
5333;SDS011;2689;50.954;7.116;2022-08-25T05:40:50;6.63;;;4.50;;
5333;SDS011;2689;50.954;7.116;2022-08-25T05:43:18;7.30;;;4.17;;
5333;SDS011;2689;50.954;7.116;2022-08-25T05:45:44;4.23;;;3.83;;
5333;SDS011;2689;50.954;7.116;2022-08-25T05:48:11;5.73;;;4.20;;
5333;SDS011;2689;50.954;7.116;2022-08-25T05:50:38;4.33;;;3.60;;
5333;SDS011;2689;50.954;7.116;2022-08-25T05:53:06;4.90;;;3.93;;
5333;SDS011;2689;50.954;7.116;2022-08-25T05:55:33;7.13;;;4.40;;
5333;SDS011;2689;50.954;7.116;2022-08-25T05:57:59;4.17;;;3.77;;
5333;SDS011;2689;50.954;7.116;2022-08-25T06:00:26;5.40;;;4.20;;
5333;SDS011;2689;50.954;7.116;2022-08-25T06:02:53;4.77;;;3.90;;
5333;SDS011;2689;50.954;7.116;2022-08-25T06:05:19;6.00;;;4.17;;
5333;SDS011;2689;50.954;7.116;2022-08-25T06:07:50;7.20;;;4.10;;
5333;SDS011;2689;50.954;7.116;2022-08-25T06:10:18;5.70;;;4.17;;
5333;SDS011;2689;50.954;7.116;2022-08-25T06:12:46;6.93;;;4.30;;
5333;SDS011;2689;50.954;7.116;2022-08-25T06:15:16;4.83;;;3.80;;
5333;SDS011;2689;50.954;7.116;2022-08-25T06:17:45;5.30;;;3.73;;
5333;SDS011;2689;50.954;7.116;2022-08-25T06:20:14;5.47;;;3.87;;
5333;SDS011;2689;50.954;7.116;2022-08-25T06:22:42;4.10;;;3.60;;
5333;SDS011;2689;50.954;7.116;2022-08-25T06:25:10;5.27;;;4.00;;
5333;SDS011;2689;50.954;7.116;2022-08-25T06:27:39;5.07;;;4.00;;
5333;SDS011;2689;50.954;7.116;2022-08-25T06:30:07;6.60;;;4.57;;
5333;SDS011;2689;50.954;7.116;2022-08-25T06:32:36;8.77;;;4.00;;
5333;SDS011;2689;50.954;7.116;2022-08-25T06:35:04;5.20;;;4.43;;
5333;SDS011;2689;50.954;7.116;2022-08-25T06:37:33;8.67;;;4.67;;
5333;SDS011;2689;50.954;7.116;2022-08-25T06:40:00;5.60;;;3.73;;
5333;SDS011;2689;50.954;7.116;2022-08-25T06:42:27;5.17;;;4.10;;
5333;SDS011;2689;50.954;7.116;2022-08-25T06:44:55;4.40;;;3.50;;
5333;SDS011;2689;50.954;7.116;2022-08-25T06:47:22;6.50;;;3.77;;
5333;SDS011;2689;50.954;7.116;2022-08-25T06:49:49;5.10;;;4.40;;
5333;SDS011;2689;50.954;7.116;2022-08-25T06:52:15;5.47;;;4.07;;
5333;SDS011;2689;50.954;7.116;2022-08-25T06:54:42;6.73;;;4.30;;
5333;SDS011;2689;50.954;7.116;2022-08-25T06:57:09;5.03;;;4.03;;
5333;SDS011;2689;50.954;7.116;2022-08-25T06:59:36;9.90;;;4.33;;
5333;SDS011;2689;50.954;7.116;2022-08-25T07:02:04;10.90;;;4.67;;
5333;SDS011;2689;50.954;7.116;2022-08-25T07:04:32;4.40;;;3.77;;
5333;SDS011;2689;50.954;7.116;2022-08-25T07:07:00;7.03;;;3.93;;
5333;SDS011;2689;50.954;7.116;2022-08-25T07:09:28;9.20;;;4.37;;
5333;SDS011;2689;50.954;7.116;2022-08-25T07:11:55;4.50;;;4.10;;
5333;SDS011;2689;50.954;7.116;2022-08-25T07:14:22;5.87;;;4.57;;
5333;SDS011;2689;50.954;7.116;2022-08-25T07:16:48;4.73;;;4.23;;
5333;SDS011;2689;50.954;7.116;2022-08-25T07:19:16;7.10;;;4.63;;
5333;SDS011;2689;50.954;7.116;2022-08-25T07:21:45;5.67;;;4.90;;
5333;SDS011;2689;50.954;7.116;2022-08-25T07:24:14;4.80;;;4.30;;
5333;SDS011;2689;50.954;7.116;2022-08-25T07:26:41;5.30;;;4.67;;
5333;SDS011;2689;50.954;7.116;2022-08-25T07:29:11;6.80;;;4.97;;
5333;SDS011;2689;50.954;7.116;2022-08-25T07:31:40;8.50;;;4.67;;
5333;SDS011;2689;50.954;7.116;2022-08-25T07:34:07;5.37;;;4.37;;
5333;SDS011;2689;50.954;7.116;2022-08-25T07:36:53;5.40;;;4.50;;
5333;SDS011;2689;50.954;7.116;2022-08-25T07:39:21;6.70;;;4.30;;
5333;SDS011;2689;50.954;7.116;2022-08-25T07:41:48;7.33;;;5.10;;
5333;SDS011;2689;50.954;7.116;2022-08-25T07:44:15;5.30;;;4.60;;
5333;SDS011;2689;50.954;7.116;2022-08-25T07:46:42;4.63;;;4.13;;
5333;SDS011;2689;50.954;7.116;2022-08-25T07:49:10;7.00;;;4.37;;
5333;SDS011;2689;50.954;7.116;2022-08-25T07:51:37;9.47;;;4.53;;
5333;SDS011;2689;50.954;7.116;2022-08-25T07:54:06;5.23;;;4.10;;
5333;SDS011;2689;50.954;7.116;2022-08-25T07:56:33;7.10;;;4.17;;
5333;SDS011;2689;50.954;7.116;2022-08-25T07:59:00;4.73;;;4.23;;
5333;SDS011;2689;50.954;7.116;2022-08-25T08:01:26;4.83;;;3.53;;
5333;SDS011;2689;50.954;7.116;2022-08-25T08:03:53;4.23;;;3.83;;
5333;SDS011;2689;50.954;7.116;2022-08-25T08:06:21;5.90;;;4.03;;
5333;SDS011;2689;50.954;7.116;2022-08-25T08:08:49;4.00;;;3.70;;
5333;SDS011;2689;50.954;7.116;2022-08-25T08:11:20;3.83;;;3.43;;
5333;SDS011;2689;50.954;7.116;2022-08-25T08:13:49;3.90;;;3.43;;
5333;SDS011;2689;50.954;7.116;2022-08-25T08:16:17;4.80;;;3.87;;
5333;SDS011;2689;50.954;7.116;2022-08-25T08:18:45;6.57;;;4.10;;
5333;SDS011;2689;50.954;7.116;2022-08-25T08:21:14;8.50;;;4.87;;
5333;SDS011;2689;50.954;7.116;2022-08-25T08:23:42;6.67;;;4.00;;
5333;SDS011;2689;50.954;7.116;2022-08-25T08:26:09;4.30;;;3.00;;
5333;SDS011;2689;50.954;7.116;2022-08-25T08:28:38;4.90;;;3.90;;
5333;SDS011;2689;50.954;7.116;2022-08-25T08:31:04;3.83;;;3.40;;
5333;SDS011;2689;50.954;7.116;2022-08-25T08:33:32;8.73;;;3.80;;
5333;SDS011;2689;50.954;7.116;2022-08-25T08:36:00;5.07;;;3.63;;
5333;SDS011;2689;50.954;7.116;2022-08-25T08:38:28;4.20;;;3.53;;
5333;SDS011;2689;50.954;7.116;2022-08-25T08:41:01;4.47;;;3.37;;
5333;SDS011;2689;50.954;7.116;2022-08-25T08:43:53;4.60;;;3.23;;
5333;SDS011;2689;50.954;7.116;2022-08-25T08:46:25;4.30;;;3.30;;
5333;SDS011;2689;50.954;7.116;2022-08-25T08:49:00;3.70;;;3.17;;
5333;SDS011;2689;50.954;7.116;2022-08-25T08:51:29;5.87;;;3.33;;
5333;SDS011;2689;50.954;7.116;2022-08-25T08:53:58;4.93;;;3.23;;
5333;SDS011;2689;50.954;7.116;2022-08-25T08:56:30;5.77;;;3.00;;
5333;SDS011;2689;50.954;7.116;2022-08-25T08:59:03;5.30;;;2.80;;
5333;SDS011;2689;50.954;7.116;2022-08-25T09:01:38;7.37;;;3.70;;
5333;SDS011;2689;50.954;7.116;2022-08-25T09:04:12;4.90;;;3.13;;
5333;SDS011;2689;50.954;7.116;2022-08-25T09:06:45;4.70;;;3.30;;
5333;SDS011;2689;50.954;7.116;2022-08-25T09:09:15;3.70;;;2.90;;
5333;SDS011;2689;50.954;7.116;2022-08-25T09:11:50;4.03;;;3.00;;
5333;SDS011;2689;50.954;7.116;2022-08-25T09:14:38;3.90;;;2.70;;
5333;SDS011;2689;50.954;7.116;2022-08-25T09:17:14;3.60;;;2.63;;
5333;SDS011;2689;50.954;7.116;2022-08-25T09:20:07;6.77;;;3.40;;
5333;SDS011;2689;50.954;7.116;2022-08-25T09:22:43;4.80;;;3.00;;
5333;SDS011;2689;50.954;7.116;2022-08-25T09:25:23;7.33;;;3.93;;
5333;SDS011;2689;50.954;7.116;2022-08-25T09:28:01;3.87;;;3.30;;
5333;SDS011;2689;50.954;7.116;2022-08-25T09:30:36;3.73;;;3.00;;
5333;SDS011;2689;50.954;7.116;2022-08-25T09:33:10;4.40;;;2.73;;
5333;SDS011;2689;50.954;7.116;2022-08-25T09:35:40;7.47;;;2.90;;
5333;SDS011;2689;50.954;7.116;2022-08-25T09:38:09;4.50;;;2.93;;
5333;SDS011;2689;50.954;7.116;2022-08-25T09:40:38;4.07;;;3.30;;
5333;SDS011;2689;50.954;7.116;2022-08-25T09:43:08;3.17;;;2.83;;
5333;SDS011;2689;50.954;7.116;2022-08-25T09:45:47;2.93;;;2.50;;
5333;SDS011;2689;50.954;7.116;2022-08-25T09:48:22;3.93;;;2.83;;
5333;SDS011;2689;50.954;7.116;2022-08-25T09:50:52;4.37;;;3.03;;
5333;SDS011;2689;50.954;7.116;2022-08-25T09:53:47;5.30;;;3.43;;
5333;SDS011;2689;50.954;7.116;2022-08-25T09:56:18;9.70;;;3.37;;
5333;SDS011;2689;50.954;7.116;2022-08-25T09:58:46;5.30;;;2.83;;
5333;SDS011;2689;50.954;7.116;2022-08-25T10:01:15;3.43;;;2.63;;
5333;SDS011;2689;50.954;7.116;2022-08-25T10:03:54;4.10;;;2.97;;
5333;SDS011;2689;50.954;7.116;2022-08-25T10:06:23;3.20;;;2.87;;
5333;SDS011;2689;50.954;7.116;2022-08-25T10:08:53;4.60;;;3.13;;
5333;SDS011;2689;50.954;7.116;2022-08-25T10:11:37;4.60;;;2.80;;
5333;SDS011;2689;50.954;7.116;2022-08-25T10:14:14;3.33;;;3.03;;
5333;SDS011;2689;50.954;7.116;2022-08-25T10:16:45;6.37;;;3.90;;
5333;SDS011;2689;50.954;7.116;2022-08-25T10:19:13;3.90;;;2.90;;
5333;SDS011;2689;50.954;7.116;2022-08-25T10:22:00;6.33;;;2.77;;
5333;SDS011;2689;50.954;7.116;2022-08-25T10:24:29;3.17;;;2.60;;
5333;SDS011;2689;50.954;7.116;2022-08-25T10:26:57;4.33;;;2.80;;
5333;SDS011;2689;50.954;7.116;2022-08-25T10:29:32;4.27;;;2.57;;
5333;SDS011;2689;50.954;7.116;2022-08-25T10:32:15;4.20;;;3.07;;
5333;SDS011;2689;50.954;7.116;2022-08-25T10:34:47;4.63;;;3.20;;
5333;SDS011;2689;50.954;7.116;2022-08-25T10:37:22;4.00;;;2.53;;
5333;SDS011;2689;50.954;7.116;2022-08-25T10:39:57;5.53;;;3.20;;
5333;SDS011;2689;50.954;7.116;2022-08-25T10:42:33;5.20;;;3.27;;
5333;SDS011;2689;50.954;7.116;2022-08-25T10:45:15;7.77;;;5.70;;
5333;SDS011;2689;50.954;7.116;2022-08-25T10:48:12;4.40;;;3.77;;
5333;SDS011;2689;50.954;7.116;2022-08-25T10:50:55;4.03;;;3.37;;
5333;SDS011;2689;50.954;7.116;2022-08-25T10:53:28;8.73;;;3.50;;
5333;SDS011;2689;50.954;7.116;2022-08-25T10:56:03;6.23;;;3.07;;
5333;SDS011;2689;50.954;7.116;2022-08-25T10:58:43;6.10;;;3.27;;
5333;SDS011;2689;50.954;7.116;2022-08-25T11:01:30;3.90;;;2.43;;
5333;SDS011;2689;50.954;7.116;2022-08-25T11:04:07;5.87;;;3.10;;
5333;SDS011;2689;50.954;7.116;2022-08-25T11:06:39;4.97;;;2.90;;
5333;SDS011;2689;50.954;7.116;2022-08-25T11:09:11;5.77;;;3.10;;
5333;SDS011;2689;50.954;7.116;2022-08-25T11:11:44;4.00;;;2.97;;
5333;SDS011;2689;50.954;7.116;2022-08-25T11:14:15;4.07;;;2.97;;
5333;SDS011;2689;50.954;7.116;2022-08-25T11:16:47;5.93;;;2.90;;
5333;SDS011;2689;50.954;7.116;2022-08-25T11:19:21;5.53;;;3.43;;
5333;SDS011;2689;50.954;7.116;2022-08-25T11:21:52;6.17;;;2.47;;
5333;SDS011;2689;50.954;7.116;2022-08-25T11:24:31;6.10;;;2.90;;
5333;SDS011;2689;50.954;7.116;2022-08-25T11:27:07;3.90;;;3.17;;
5333;SDS011;2689;50.954;7.116;2022-08-25T11:29:38;8.20;;;3.53;;
5333;SDS011;2689;50.954;7.116;2022-08-25T11:32:08;5.63;;;3.30;;
5333;SDS011;2689;50.954;7.116;2022-08-25T11:34:37;4.97;;;3.00;;
5333;SDS011;2689;50.954;7.116;2022-08-25T11:37:06;5.20;;;3.40;;
5333;SDS011;2689;50.954;7.116;2022-08-25T11:39:44;4.60;;;4.10;;
5333;SDS011;2689;50.954;7.116;2022-08-25T11:42:33;3.83;;;3.27;;
5333;SDS011;2689;50.954;7.116;2022-08-25T11:45:11;5.13;;;3.00;;
5333;SDS011;2689;50.954;7.116;2022-08-25T11:47:55;5.50;;;4.03;;
5333;SDS011;2689;50.954;7.116;2022-08-25T11:50:34;4.43;;;3.30;;
5333;SDS011;2689;50.954;7.116;2022-08-25T11:53:19;5.97;;;3.97;;
5333;SDS011;2689;50.954;7.116;2022-08-25T11:55:50;4.90;;;3.17;;
5333;SDS011;2689;50.954;7.116;2022-08-25T11:58:26;11.07;;;4.00;;
5333;SDS011;2689;50.954;7.116;2022-08-25T12:00:57;7.00;;;3.53;;
5333;SDS011;2689;50.954;7.116;2022-08-25T12:06:38;7.30;;;3.60;;
5333;SDS011;2689;50.954;7.116;2022-08-25T12:12:56;3.60;;;3.10;;
5333;SDS011;2689;50.954;7.116;2022-08-25T12:15:26;6.37;;;3.00;;
5333;SDS011;2689;50.954;7.116;2022-08-25T12:18:07;4.03;;;3.20;;
5333;SDS011;2689;50.954;7.116;2022-08-25T12:24:05;5.40;;;3.47;;
5333;SDS011;2689;50.954;7.116;2022-08-25T12:26:41;7.63;;;3.67;;
5333;SDS011;2689;50.954;7.116;2022-08-25T12:29:13;3.90;;;3.40;;
5333;SDS011;2689;50.954;7.116;2022-08-25T12:31:48;4.90;;;3.17;;
5333;SDS011;2689;50.954;7.116;2022-08-25T12:34:32;4.00;;;3.60;;
5333;SDS011;2689;50.954;7.116;2022-08-25T12:37:16;4.80;;;3.20;;
5333;SDS011;2689;50.954;7.116;2022-08-25T12:39:54;6.33;;;3.63;;
5333;SDS011;2689;50.954;7.116;2022-08-25T12:42:28;3.83;;;2.97;;
5333;SDS011;2689;50.954;7.116;2022-08-25T12:45:10;5.77;;;3.80;;
5333;SDS011;2689;50.954;7.116;2022-08-25T12:47:52;3.17;;;2.87;;
5333;SDS011;2689;50.954;7.116;2022-08-25T12:50:26;4.10;;;3.67;;
5333;SDS011;2689;50.954;7.116;2022-08-25T12:52:58;3.30;;;2.90;;
5333;SDS011;2689;50.954;7.116;2022-08-25T12:55:35;5.03;;;2.80;;
5333;SDS011;2689;50.954;7.116;2022-08-25T12:58:05;3.10;;;2.70;;
5333;SDS011;2689;50.954;7.116;2022-08-25T13:00:34;3.67;;;2.90;;
5333;SDS011;2689;50.954;7.116;2022-08-25T13:03:20;4.00;;;3.30;;
5333;SDS011;2689;50.954;7.116;2022-08-25T13:06:07;3.60;;;3.17;;
5333;SDS011;2689;50.954;7.116;2022-08-25T13:08:56;5.50;;;2.90;;
5333;SDS011;2689;50.954;7.116;2022-08-25T13:11:45;4.27;;;2.73;;
5333;SDS011;2689;50.954;7.116;2022-08-25T13:14:17;4.90;;;2.80;;
5333;SDS011;2689;50.954;7.116;2022-08-25T13:16:52;6.57;;;3.20;;
5333;SDS011;2689;50.954;7.116;2022-08-25T13:19:20;5.70;;;3.07;;
5333;SDS011;2689;50.954;7.116;2022-08-25T13:21:47;4.20;;;3.17;;
5333;SDS011;2689;50.954;7.116;2022-08-25T13:24:16;5.33;;;3.47;;
5333;SDS011;2689;50.954;7.116;2022-08-25T13:26:48;5.10;;;3.10;;
5333;SDS011;2689;50.954;7.116;2022-08-25T13:29:20;4.00;;;3.33;;
5333;SDS011;2689;50.954;7.116;2022-08-25T13:31:49;9.80;;;2.80;;
5333;SDS011;2689;50.954;7.116;2022-08-25T13:34:19;5.87;;;2.93;;
5333;SDS011;2689;50.954;7.116;2022-08-25T13:36:48;4.37;;;3.13;;
5333;SDS011;2689;50.954;7.116;2022-08-25T13:39:33;5.73;;;3.23;;
5333;SDS011;2689;50.954;7.116;2022-08-25T13:42:03;4.87;;;2.80;;
5333;SDS011;2689;50.954;7.116;2022-08-25T13:44:34;3.63;;;2.87;;
5333;SDS011;2689;50.954;7.116;2022-08-25T13:47:06;3.83;;;2.80;;
5333;SDS011;2689;50.954;7.116;2022-08-25T13:49:34;4.03;;;3.27;;
5333;SDS011;2689;50.954;7.116;2022-08-25T13:52:03;3.70;;;2.50;;
5333;SDS011;2689;50.954;7.116;2022-08-25T13:54:33;4.43;;;2.60;;
5333;SDS011;2689;50.954;7.116;2022-08-25T13:57:05;3.77;;;3.37;;
5333;SDS011;2689;50.954;7.116;2022-08-25T13:59:38;4.33;;;2.80;;
5333;SDS011;2689;50.954;7.116;2022-08-25T14:02:08;3.27;;;2.47;;
5333;SDS011;2689;50.954;7.116;2022-08-25T14:05:01;4.73;;;2.63;;
5333;SDS011;2689;50.954;7.116;2022-08-25T14:07:28;3.13;;;2.23;;
5333;SDS011;2689;50.954;7.116;2022-08-25T14:09:57;4.70;;;2.80;;
5333;SDS011;2689;50.954;7.116;2022-08-25T14:12:39;7.50;;;2.67;;
5333;SDS011;2689;50.954;7.116;2022-08-25T14:15:11;4.43;;;2.70;;
5333;SDS011;2689;50.954;7.116;2022-08-25T14:17:59;9.07;;;2.80;;
5333;SDS011;2689;50.954;7.116;2022-08-25T14:20:30;5.57;;;3.10;;
5333;SDS011;2689;50.954;7.116;2022-08-25T14:22:58;4.00;;;3.27;;
5333;SDS011;2689;50.954;7.116;2022-08-25T14:25:28;5.40;;;2.80;;
5333;SDS011;2689;50.954;7.116;2022-08-25T14:27:57;4.07;;;2.90;;
5333;SDS011;2689;50.954;7.116;2022-08-25T14:30:25;3.33;;;2.43;;
5333;SDS011;2689;50.954;7.116;2022-08-25T14:32:52;4.23;;;2.50;;
5333;SDS011;2689;50.954;7.116;2022-08-25T14:35:20;4.03;;;3.67;;
5333;SDS011;2689;50.954;7.116;2022-08-25T14:37:47;3.60;;;2.90;;
5333;SDS011;2689;50.954;7.116;2022-08-25T14:40:15;6.70;;;3.20;;
5333;SDS011;2689;50.954;7.116;2022-08-25T14:42:46;4.13;;;2.67;;
5333;SDS011;2689;50.954;7.116;2022-08-25T14:45:15;3.50;;;2.83;;
5333;SDS011;2689;50.954;7.116;2022-08-25T14:47:42;6.57;;;2.50;;
5333;SDS011;2689;50.954;7.116;2022-08-25T14:50:11;3.20;;;2.70;;
5333;SDS011;2689;50.954;7.116;2022-08-25T14:52:39;3.37;;;2.80;;
5333;SDS011;2689;50.954;7.116;2022-08-25T14:55:08;2.60;;;2.20;;
5333;SDS011;2689;50.954;7.116;2022-08-25T14:57:36;4.53;;;2.80;;
5333;SDS011;2689;50.954;7.116;2022-08-25T15:00:04;4.20;;;3.03;;
5333;SDS011;2689;50.954;7.116;2022-08-25T15:02:33;4.67;;;3.10;;
5333;SDS011;2689;50.954;7.116;2022-08-25T15:05:05;3.07;;;2.60;;
5333;SDS011;2689;50.954;7.116;2022-08-25T15:07:36;6.20;;;2.97;;
5333;SDS011;2689;50.954;7.116;2022-08-25T15:10:21;5.00;;;3.97;;
5333;SDS011;2689;50.954;7.116;2022-08-25T15:12:48;7.00;;;3.07;;
5333;SDS011;2689;50.954;7.116;2022-08-25T15:15:15;4.40;;;3.33;;
5333;SDS011;2689;50.954;7.116;2022-08-25T15:17:44;2.93;;;2.40;;
5333;SDS011;2689;50.954;7.116;2022-08-25T15:20:12;3.70;;;2.50;;
5333;SDS011;2689;50.954;7.116;2022-08-25T15:22:39;3.40;;;2.67;;
5333;SDS011;2689;50.954;7.116;2022-08-25T15:25:06;8.43;;;3.33;;
5333;SDS011;2689;50.954;7.116;2022-08-25T15:27:33;3.37;;;2.93;;
5333;SDS011;2689;50.954;7.116;2022-08-25T15:30:00;6.77;;;3.20;;
5333;SDS011;2689;50.954;7.116;2022-08-25T15:32:27;3.30;;;2.40;;
5333;SDS011;2689;50.954;7.116;2022-08-25T15:34:55;11.07;;;3.77;;
5333;SDS011;2689;50.954;7.116;2022-08-25T15:37:23;2.80;;;2.50;;
5333;SDS011;2689;50.954;7.116;2022-08-25T15:39:50;7.73;;;2.33;;
5333;SDS011;2689;50.954;7.116;2022-08-25T15:42:16;4.70;;;3.20;;
5333;SDS011;2689;50.954;7.116;2022-08-25T15:44:43;2.90;;;2.10;;
5333;SDS011;2689;50.954;7.116;2022-08-25T15:47:10;3.77;;;2.07;;